Time;durP1;ratioP1;P1;durP2;ratioP2;P2;SDS_P1;SDS_P2;PMS_P1;PMS_P2;Temp;Humidity;BMP_temperature;BMP_pressure;BME280_temperature;BME280_humidity;BME280_pressure;Samples;Min_cycle;Max_cycle;Signal;HPM_P1;HPM_P2
2021/04/04 00:01:57;;;;;;;5.53;2.90;;;;;;;5.86;97.05;100619.62;1789456;80;21164;-55
2021/04/04 00:04:25;;;;;;;6.42;2.40;;;;;;;5.84;97.39;100618.30;1789499;80;21693;-56
2021/04/04 00:06:52;;;;;;;5.12;2.80;;;;;;;5.85;97.41;100619.16;1786408;80;21086;-55
2021/04/04 00:09:21;;;;;;;7.35;2.92;;;;;;;5.85;97.45;100616.50;1762274;81;21069;-55
2021/04/04 00:11:49;;;;;;;5.60;3.10;;;;;;;5.85;97.52;100621.82;1762321;81;21066;-55
2021/04/04 00:14:17;;;;;;;3.50;2.27;;;;;;;5.83;97.56;100617.88;1793853;80;21533;-55
2021/04/04 00:16:45;;;;;;;6.37;2.50;;;;;;;5.84;97.35;100624.05;1793803;80;22347;-55
2021/04/04 00:19:13;;;;;;;3.95;2.45;;;;;;;5.84;97.15;100621.39;1762310;81;21070;-55
2021/04/04 00:21:40;;;;;;;4.37;2.70;;;;;;;5.86;97.09;100615.63;1773714;80;21167;-55
2021/04/04 00:24:09;;;;;;;3.95;2.67;;;;;;;5.85;97.16;100620.48;1762240;81;21175;-56
2021/04/04 00:26:38;;;;;;;5.08;2.72;;;;;;;5.84;97.26;100618.73;1793687;80;21095;-56
2021/04/04 00:29:07;;;;;;;4.20;2.10;;;;;;;5.82;97.43;100616.56;1762232;81;21313;-56
2021/04/04 00:31:35;;;;;;;3.27;2.25;;;;;;;5.80;97.39;100611.28;1793681;80;21562;-55
2021/04/04 00:34:04;;;;;;;4.03;2.33;;;;;;;5.77;97.02;100610.45;1759782;81;21137;-56
2021/04/04 00:36:33;;;;;;;3.02;1.90;;;;;;;5.74;96.80;100613.59;1776407;80;21566;-55
2021/04/04 00:39:08;;;;;;;2.62;1.87;;;;;;;5.71;96.72;100613.64;1759707;81;21541;-56
2021/04/04 00:41:38;;;;;;;3.35;2.00;;;;;;;5.68;96.57;100619.02;1776460;80;21367;-56
2021/04/04 00:44:06;;;;;;;3.80;2.08;;;;;;;5.66;96.58;100615.52;1759739;81;21160;-55
2021/04/04 00:46:34;;;;;;;4.47;2.27;;;;;;;5.65;96.66;100613.76;1761202;81;21140;-55
2021/04/04 00:49:02;;;;;;;5.05;2.50;;;;;;;5.64;97.00;100613.33;1761145;81;21129;-55
2021/04/04 00:51:31;;;;;;;4.33;2.80;;;;;;;5.63;97.12;100612.88;1761300;81;21510;-55
2021/04/04 00:53:59;;;;;;;6.22;2.87;;;;;;;5.65;97.31;100611.09;1761266;81;21350;-56
2021/04/04 00:56:27;;;;;;;4.92;2.50;;;;;;;5.65;97.43;100618.19;1733739;81;21105;-56
2021/04/04 00:58:55;;;;;;;4.03;2.17;;;;;;;5.65;97.61;100613.76;1761208;81;21116;-55
2021/04/04 01:01:22;;;;;;;3.77;2.20;;;;;;;5.66;97.68;100596.89;1733745;81;21057;-55
2021/04/04 01:03:50;;;;;;;4.83;2.12;;;;;;;5.65;97.66;100589.81;1761162;81;21066;-55
2021/04/04 01:06:18;;;;;;;6.08;1.95;;;;;;;5.65;97.75;100583.61;1760374;81;21740;-54
2021/04/04 01:08:46;;;;;;;4.05;2.37;;;;;;;5.64;98.01;100585.41;1776355;80;21158;-55
2021/04/04 01:11:17;;;;;;;3.10;2.37;;;;;;;5.62;97.98;100589.84;1759533;81;21176;-55
2021/04/04 01:14:04;;;;;;;4.70;2.33;;;;;;;5.60;98.25;100588.99;1776500;80;21571;-55
2021/04/04 01:16:36;;;;;;;3.42;2.27;;;;;;;5.58;98.55;100585.48;1750618;81;21192;-55
2021/04/04 01:19:33;;;;;;;3.33;2.00;;;;;;;5.56;98.64;100588.63;1776459;80;21358;-56
2021/04/04 01:22:24;;;;;;;4.85;1.95;;;;;;;5.54;98.70;100575.81;1759504;81;21058;-56
2021/04/04 01:25:09;;;;;;;5.17;1.90;;;;;;;5.51;98.86;100569.22;1776439;80;20962;-55
2021/04/04 01:27:47;;;;;;;3.67;2.08;;;;;;;5.52;98.95;100572.30;1759645;81;21097;-55
2021/04/04 01:30:15;;;;;;;7.60;2.35;;;;;;;5.53;99.19;100575.39;1776350;80;21601;-55
2021/04/04 01:32:46;;;;;;;3.22;2.62;;;;;;;5.53;99.26;100574.95;1758922;81;21654;-54
2021/04/04 01:35:15;;;;;;;4.50;2.60;;;;;;;5.53;99.17;100586.02;1770580;81;21155;-55
2021/04/04 01:37:42;;;;;;;3.83;2.45;;;;;;;5.52;99.29;100585.13;1756561;81;21098;-55
2021/04/04 01:40:16;;;;;;;5.03;2.27;;;;;;;5.53;99.36;100583.36;1746728;80;21063;-55
2021/04/04 01:42:43;;;;;;;6.55;2.62;;;;;;;5.53;99.80;100583.36;1756671;81;21392;-55
2021/04/04 01:45:13;;;;;;;3.77;2.20;;;;;;;5.51;99.75;100589.16;1773475;80;21674;-55
2021/04/04 01:47:42;;;;;;;5.35;2.65;;;;;;;5.49;99.54;100581.20;1751999;81;21080;-55
2021/04/04 01:50:12;;;;;;;4.55;2.30;;;;;;;5.47;99.66;100583.00;1770684;80;21064;-55
2021/04/04 01:52:39;;;;;;;3.55;2.42;;;;;;;5.46;99.57;100583.91;1770730;81;21190;-56
2021/04/04 01:55:08;;;;;;;4.42;1.92;;;;;;;5.47;99.48;100579.48;1751450;81;21186;-55
2021/04/04 01:57:36;;;;;;;3.20;1.80;;;;;;;5.48;99.68;100571.93;1770658;80;21362;-55
2021/04/04 02:00:12;;;;;;;4.90;1.92;;;;;;;5.48;99.41;100575.92;1751385;81;21152;-56
2021/04/04 02:02:45;;;;;;;2.65;1.50;;;;;;;5.46;99.45;100583.91;1770626;81;21080;-55
2021/04/04 02:05:14;;;;;;;3.40;1.40;;;;;;;5.48;99.43;100578.11;1770871;80;21072;-55
2021/04/04 02:07:43;;;;;;;2.15;1.55;;;;;;;5.52;99.42;100577.62;1776868;80;22263;-55
2021/04/04 02:10:14;;;;;;;1.90;1.45;;;;;;;5.55;99.17;100572.25;1776627;80;21763;-55
2021/04/04 02:12:44;;;;;;;4.30;1.75;;;;;;;5.58;98.88;100568.20;1776597;79;21078;-55
2021/04/04 02:15:13;;;;;;;2.80;1.22;;;;;;;5.57;98.74;100569.11;1746693;80;21500;-56
2021/04/04 02:17:44;;;;;;;1.87;1.42;;;;;;;5.58;98.54;100570.86;1776559;80;21091;-55
2021/04/04 02:20:14;;;;;;;2.95;1.47;;;;;;;5.58;98.34;100569.53;1776745;80;21052;-55
2021/04/04 09:35:58;;;;;;;2.12;1.40;;;;;;;7.77;82.01;100756.15;1734507;81;21197;-47
2021/04/04 09:38:40;;;;;;;2.77;1.22;;;;;;;7.90;81.25;100754.96;1857617;76;28627;-47
2021/04/04 09:41:09;;;;;;;3.30;1.20;;;;;;;7.95;81.71;100761.06;1827319;77;21095;-49
2021/04/04 09:43:58;;;;;;;0.82;0.82;;;;;;;8.12;81.70;100755.77;1824116;78;22218;-48
2021/04/04 09:46:25;;;;;;;3.25;1.10;;;;;;;8.28;80.31;100763.80;1808165;78;21076;-48
2021/04/04 09:48:54;;;;;;;0.85;0.82;;;;;;;8.37;78.69;100767.17;1825405;78;21064;-49
2021/04/04 09:51:22;;;;;;;1.82;0.90;;;;;;;8.44;78.01;100765.65;1798248;78;21045;-49
2021/04/04 09:53:52;;;;;;;0.80;0.80;;;;;;;8.56;77.77;100764.48;1825675;78;21093;-48
2021/04/04 09:56:28;;;;;;;1.42;1.12;;;;;;;8.66;77.25;100763.78;1815004;78;22233;-49
2021/04/04 09:58:56;;;;;;;1.57;1.05;;;;;;;8.70;76.83;100775.24;1834556;78;21579;-49
2021/04/04 10:01:27;;;;;;;2.02;1.30;;;;;;;8.68;76.55;100764.61;1808471;78;21124;-47
2021/04/04 10:04:06;;;;;;;1.60;1.15;;;;;;;8.73;76.48;100767.14;1820853;78;21061;-47
2021/04/04 10:06:36;;;;;;;1.80;1.25;;;;;;;8.86;76.43;100761.88;1808996;78;21455;-47
2021/04/04 10:09:12;;;;;;;1.52;1.17;;;;;;;9.04;75.20;100763.63;1821977;78;21683;-47
2021/04/04 10:11:40;;;;;;;2.35;1.60;;;;;;;9.18;74.80;100765.91;1808597;78;21143;-47
2021/04/04 10:14:11;;;;;;;2.05;1.10;;;;;;;9.34;74.34;100770.34;1833513;78;21096;-47
2021/04/04 10:16:41;;;;;;;1.57;0.95;;;;;;;9.45;73.08;100768.23;1812548;78;21223;-47
2021/04/04 10:19:11;;;;;;;2.60;1.20;;;;;;;9.49;72.53;100764.12;1834875;78;21108;-47
2021/04/04 10:21:56;;;;;;;1.72;1.10;;;;;;;9.49;72.40;100758.77;1824976;78;22304;-47
2021/04/04 10:24:29;;;;;;;1.25;1.05;;;;;;;9.51;72.31;100760.94;1815242;78;28206;-47
2021/04/04 10:27:24;;;;;;;1.50;1.07;;;;;;;9.43;70.89;100760.72;1838296;78;21153;-47
2021/04/04 10:30:16;;;;;;;1.35;1.00;;;;;;;9.27;71.01;100758.08;1834908;78;21045;-48
2021/04/04 10:32:48;;;;;;;1.62;0.98;;;;;;;9.01;71.18;100767.26;1826536;78;21049;-48
2021/04/04 10:35:39;;;;;;;2.85;1.20;;;;;;;8.80;71.71;100774.09;1821814;78;22033;-49
2021/04/04 10:38:09;;;;;;;1.42;1.20;;;;;;;8.66;72.25;100770.91;1821194;77;21485;-48
2021/04/04 10:40:56;;;;;;;1.60;1.12;;;;;;;8.50;73.02;100768.63;1821719;78;21152;-48
2021/04/04 10:43:38;;;;;;;2.25;1.50;;;;;;;8.39;73.83;100768.02;1825419;78;21100;-48
2021/04/04 10:46:10;;;;;;;1.35;1.10;;;;;;;8.35;74.20;100767.20;1814235;78;21040;-48
2021/04/04 10:48:43;;;;;;;1.30;1.07;;;;;;;8.33;74.09;100765.50;1826704;78;21354;-48
2021/04/04 10:51:13;;;;;;;1.45;1.25;;;;;;;8.25;74.31;100762.55;1826654;78;21100;-48
2021/04/04 10:53:40;;;;;;;1.27;1.17;;;;;;;8.26;74.56;100765.64;1814428;78;21131;-48
2021/04/04 10:56:09;;;;;;;1.37;1.20;;;;;;;8.29;74.50;100769.59;1820420;78;21127;-48
2021/04/04 10:58:37;;;;;;;2.22;1.10;;;;;;;8.34;74.73;100768.12;1836485;78;21148;-48
2021/04/04 11:01:06;;;;;;;1.60;1.35;;;;;;;8.36;74.79;100773.44;1816571;78;22108;-48
2021/04/04 11:03:34;;;;;;;2.00;1.40;;;;;;;8.36;74.90;100774.77;1824248;78;21061;-48
2021/04/04 11:06:03;;;;;;;2.33;1.25;;;;;;;8.31;75.22;100779.78;1820953;78;21053;-48
2021/04/04 11:08:31;;;;;;;2.00;1.60;;;;;;;8.36;75.59;100780.11;1819729;78;21040;-48
2021/04/04 11:11:00;;;;;;;1.87;1.52;;;;;;;8.42;75.66;100774.61;1799185;78;21511;-48
2021/04/04 11:13:28;;;;;;;2.30;1.52;;;;;;;8.44;75.62;100784.80;1821926;78;21427;-48
2021/04/04 11:16:01;;;;;;;1.75;1.40;;;;;;;8.42;75.80;100777.28;1813039;78;21175;-48
2021/04/04 11:18:39;;;;;;;2.27;1.72;;;;;;;8.44;75.92;100782.13;1827661;78;21116;-48
2021/04/04 11:21:11;;;;;;;2.77;1.52;;;;;;;8.43;75.70;100779.03;1825755;78;21140;-48
2021/04/04 11:23:39;;;;;;;4.20;1.45;;;;;;;8.42;75.69;100777.28;1808217;78;21104;-49
2021/04/04 11:26:29;;;;;;;3.85;1.70;;;;;;;8.44;75.71;100776.34;1743017;81;21692;-49
2021/04/04 11:29:21;;;;;;;2.80;1.70;;;;;;;8.50;75.75;100771.30;1757843;81;21199;-49
2021/04/04 11:31:57;;;;;;;1.98;1.60;;;;;;;8.59;75.94;100776.42;1746002;81;21169;-48
2021/04/04 11:34:40;;;;;;;3.95;1.70;;;;;;;8.71;75.46;100775.22;1758873;80;21070;-49
2021/04/04 11:37:19;;;;;;;2.25;1.70;;;;;;;8.78;75.09;100775.94;1776129;80;21358;-48
2021/04/04 11:40:16;;;;;;;1.92;1.47;;;;;;;8.83;74.86;100776.68;1771749;80;21148;-48
2021/04/04 11:42:46;;;;;;;5.53;3.42;;;;;;;8.81;74.43;100769.61;1773925;80;21081;-47
2021/04/04 11:45:32;;;;;;;3.25;2.40;;;;;;;8.74;74.16;100779.14;1767458;80;21085;-47
2021/04/04 11:48:31;;;;;;;2.70;2.20;;;;;;;8.68;74.12;100777.98;1753288;80;21130;-48
2021/04/04 11:51:18;;;;;;;2.80;1.82;;;;;;;8.65;74.44;100773.16;1763539;80;21536;-48
2021/04/04 11:53:47;;;;;;;2.60;1.85;;;;;;;8.71;74.83;100774.33;1785063;80;21560;-48
2021/04/04 11:56:45;;;;;;;2.58;2.00;;;;;;;8.83;74.81;100770.44;1776069;80;21112;-48
2021/04/04 11:59:14;;;;;;;3.55;1.80;;;;;;;8.91;74.71;100770.23;1771772;80;21443;-49
2021/04/04 12:01:43;;;;;;;3.08;1.80;;;;;;;8.98;74.39;100766.48;1758816;80;21093;-49
2021/04/04 12:04:31;;;;;;;1.80;1.65;;;;;;;9.07;74.34;100766.21;1776354;80;21102;-49
2021/04/04 12:07:16;;;;;;;1.92;1.70;;;;;;;9.14;73.93;100767.78;1764538;80;21257;-49
2021/04/04 12:09:47;;;;;;;2.65;1.47;;;;;;;9.18;73.58;100772.59;1758945;80;21124;-49
2021/04/04 12:12:16;;;;;;;2.35;1.80;;;;;;;9.15;73.14;100780.23;1758750;80;21608;-49
2021/04/04 12:14:55;;;;;;;1.75;1.60;;;;;;;9.11;73.08;100779.05;1770945;80;21147;-49
2021/04/04 12:17:25;;;;;;;3.50;1.57;;;;;;;9.08;73.35;100776.47;1758385;80;21087;-48
2021/04/04 12:19:54;;;;;;;2.12;1.80;;;;;;;9.01;73.45;100774.42;1765054;80;21093;-48
2021/04/04 12:22:42;;;;;;;2.60;1.70;;;;;;;8.96;73.60;100775.87;1764058;80;21124;-48
2021/04/04 12:25:28;;;;;;;2.25;1.50;;;;;;;8.96;73.54;100777.69;1866483;76;28147;-49
2021/04/04 12:27:57;;;;;;;2.02;1.60;;;;;;;8.88;73.68;100770.73;1835223;78;21151;-49
2021/04/04 12:30:41;;;;;;;1.75;1.37;;;;;;;8.97;73.79;100775.44;1832216;78;22326;-47
2021/04/04 12:33:17;;;;;;;1.57;1.30;;;;;;;9.08;73.59;100767.97;1823589;78;20940;-48
2021/04/04 12:35:48;;;;;;;1.20;1.10;;;;;;;9.27;73.24;100767.44;1838460;78;20978;-48
2021/04/04 12:38:31;;;;;;;2.25;1.50;;;;;;;9.44;72.76;100763.81;1820113;78;20945;-48
2021/04/04 12:41:01;;;;;;;2.65;1.65;;;;;;;9.62;72.29;100761.95;1836645;78;21151;-48
2021/04/04 12:43:30;;;;;;;2.45;1.70;;;;;;;9.81;71.74;100762.23;1826920;78;21352;-48
2021/04/04 12:45:58;;;;;;;2.20;1.75;;;;;;;9.96;71.37;100756.40;1826306;77;20949;-48
2021/04/04 12:48:25;;;;;;;2.00;1.60;;;;;;;10.08;70.83;100763.64;1830000;78;21040;-48
2021/04/04 12:50:57;;;;;;;2.10;1.40;;;;;;;10.11;70.61;100761.72;1833351;78;21056;-48
2021/04/04 12:53:26;;;;;;;2.73;1.50;;;;;;;10.13;70.17;100761.20;1813676;78;21130;-48
2021/04/04 12:55:54;;;;;;;2.35;1.50;;;;;;;10.10;69.87;100759.11;1779660;80;21569;-48
2021/04/04 12:58:31;;;;;;;2.55;1.60;;;;;;;10.02;69.61;100754.85;1764950;80;21153;-49
2021/04/04 13:01:00;;;;;;;2.00;1.80;;;;;;;9.95;69.69;100748.44;1779888;80;21181;-48
2021/04/04 13:03:35;;;;;;;2.52;1.72;;;;;;;9.87;69.48;100752.22;1778637;80;21501;-47
2021/04/04 13:06:04;;;;;;;3.95;1.77;;;;;;;9.81;69.72;100751.08;1768080;79;21093;-48
2021/04/04 13:08:34;;;;;;;3.42;1.75;;;;;;;9.79;69.85;100748.92;1780445;80;21556;-48
2021/04/04 13:11:12;;;;;;;4.08;1.70;;;;;;;9.80;69.88;100746.66;1738103;80;21545;-48
2021/04/04 13:13:43;;;;;;;3.72;1.90;;;;;;;9.84;69.85;100749.64;1768020;80;21090;-47
2021/04/04 13:16:14;;;;;;;6.47;2.62;;;;;;;9.91;69.80;100751.66;1766111;80;21141;-47
2021/04/04 13:18:46;;;;;;;3.17;2.20;;;;;;;9.95;69.78;100745.28;1763673;80;21156;-47
2021/04/04 13:21:21;;;;;;;5.55;3.58;;;;;;;10.00;69.68;100741.98;1755770;80;21201;-48
2021/04/04 13:23:52;;;;;;;3.72;2.95;;;;;;;10.06;69.49;100745.37;1767713;79;21089;-49
2021/04/04 13:26:31;;;;;;;3.37;2.55;;;;;;;10.10;69.34;100743.89;1755553;80;21508;-49
2021/04/04 13:29:06;;;;;;;5.60;3.40;;;;;;;10.12;69.25;100746.53;1768709;80;21191;-49
2021/04/04 13:31:35;;;;;;;6.55;3.90;;;;;;;10.12;69.20;100741.17;1756429;80;21101;-49
2021/04/04 13:34:13;;;;;;;7.60;3.25;;;;;;;10.12;69.21;100747.88;1780350;80;21563;-49
2021/04/04 13:36:57;;;;;;;7.10;3.80;;;;;;;10.10;69.29;100749.73;1761730;80;21114;-49
2021/04/04 13:39:32;;;;;;;6.33;3.95;;;;;;;10.04;69.16;100743.62;1766474;80;21129;-49
2021/04/04 13:42:02;;;;;;;6.35;3.60;;;;;;;9.99;69.36;100742.91;1772001;80;21104;-47
2021/04/04 13:44:43;;;;;;;4.92;2.77;;;;;;;9.93;69.56;100748.47;1759101;80;21149;-49
2021/04/04 13:47:22;;;;;;;2.95;2.10;;;;;;;9.88;69.72;100753.11;1771373;80;21238;-49
2021/04/04 13:49:50;;;;;;;3.10;2.35;;;;;;;9.80;69.74;100753.80;1767093;80;21172;-49
2021/04/04 13:52:24;;;;;;;3.62;2.75;;;;;;;9.72;69.84;100755.37;1767972;80;21069;-48
2021/04/04 13:54:52;;;;;;;4.73;3.20;;;;;;;9.65;70.02;100756.05;1778338;80;21117;-48
2021/04/04 13:57:39;;;;;;;3.20;2.70;;;;;;;9.62;70.06;100752.58;1767199;80;21111;-48
2021/04/04 14:00:09;;;;;;;2.92;2.40;;;;;;;9.57;70.17;100752.27;1766857;80;21205;-48
2021/04/04 14:02:38;;;;;;;3.10;2.40;;;;;;;9.54;70.25;100755.05;1779244;80;21073;-48
2021/04/04 14:05:26;;;;;;;3.27;2.45;;;;;;;9.51;70.30;100756.92;1767059;80;21057;-48
2021/04/04 14:07:54;;;;;;;4.12;2.77;;;;;;;9.47;70.48;100762.81;1767573;80;21145;-48
2021/04/04 14:10:22;;;;;;;6.50;2.70;;;;;;;9.43;70.71;100753.13;1767179;80;21241;-48
2021/04/04 14:12:49;;;;;;;3.77;2.70;;;;;;;9.41;70.82;100755.87;1737923;80;21454;-48
2021/04/04 14:15:19;;;;;;;3.30;2.67;;;;;;;9.42;70.87;100758.97;1767093;79;21089;-48
2021/04/04 14:17:47;;;;;;;4.50;3.02;;;;;;;9.41;70.92;100762.56;1767169;80;21061;-48
2021/04/04 14:20:16;;;;;;;4.05;3.00;;;;;;;9.41;71.09;100765.25;1762569;80;21037;-48
2021/04/04 14:22:43;;;;;;;4.72;3.17;;;;;;;9.42;71.27;100758.97;1763283;80;21099;-49
2021/04/04 14:25:13;;;;;;;7.58;4.10;;;;;;;9.43;71.42;100764.73;1755765;80;20944;-49
2021/04/04 14:27:40;;;;;;;4.65;3.40;;;;;;;9.45;71.48;100774.93;1776458;80;21164;-48
2021/04/04 14:30:09;;;;;;;4.50;3.33;;;;;;;9.47;71.72;100770.84;1766407;80;21075;-48
2021/04/04 14:32:37;;;;;;;5.72;3.50;;;;;;;9.48;72.00;100775.75;1767559;80;21181;-48
2021/04/04 14:35:06;;;;;;;6.03;3.98;;;;;;;9.48;72.59;100770.41;1762809;80;21168;-49
2021/04/04 14:37:35;;;;;;;5.67;3.70;;;;;;;9.49;73.02;100780.19;1772490;80;21190;-48
2021/04/04 14:40:05;;;;;;;8.65;3.40;;;;;;;9.50;73.39;100772.56;1766859;80;21157;-48
2021/04/04 14:42:33;;;;;;;7.33;4.20;;;;;;;9.53;73.86;100768.45;1773946;80;21116;-48
2021/04/04 14:45:01;;;;;;;7.92;3.80;;;;;;;9.56;74.11;100772.37;1766316;80;21585;-48
2021/04/04 14:47:28;;;;;;;12.58;5.85;;;;;;;9.58;74.43;100779.89;1768295;80;21053;-52
2021/04/04 14:49:56;;;;;;;7.58;5.35;;;;;;;9.58;74.63;100774.54;1767380;80;21349;-48
2021/04/04 14:52:23;;;;;;;10.23;5.70;;;;;;;9.58;74.87;100775.87;1757160;80;21146;-48
2021/04/04 14:54:52;;;;;;;8.10;5.45;;;;;;;9.55;75.27;100767.95;1762958;80;21154;-48
2021/04/04 14:57:20;;;;;;;8.68;4.83;;;;;;;9.54;75.49;100772.88;1776066;80;21137;-48
2021/04/04 14:59:47;;;;;;;6.50;4.03;;;;;;;9.54;75.80;100773.78;1774914;80;21050;-49
2021/04/04 15:02:30;;;;;;;9.03;3.70;;;;;;;9.56;76.11;100773.27;1755389;80;21736;-48
2021/04/04 15:04:57;;;;;;;5.28;3.77;;;;;;;9.57;76.37;100772.34;1770549;80;21081;-48
2021/04/04 15:07:25;;;;;;;5.60;3.20;;;;;;;9.59;76.61;100778.97;1778577;80;21069;-48
2021/04/04 15:09:53;;;;;;;5.95;3.27;;;;;;;9.60;76.89;100774.02;1762599;80;21157;-48
2021/04/04 15:12:20;;;;;;;5.15;3.15;;;;;;;9.59;77.01;100775.84;1782227;80;21129;-49
2021/04/04 15:14:48;;;;;;;5.95;3.20;;;;;;;9.58;77.11;100774.54;1778010;80;21689;-48
2021/04/04 15:17:16;;;;;;;5.12;3.33;;;;;;;9.56;77.20;100773.71;1772514;80;21074;-48
2021/04/04 15:19:44;;;;;;;4.90;3.20;;;;;;;9.57;77.28;100770.11;1771963;80;21098;-48
2021/04/04 15:22:11;;;;;;;6.12;3.22;;;;;;;9.52;77.26;100768.94;1762641;80;21548;-48
2021/04/04 15:24:39;;;;;;;5.22;3.52;;;;;;;9.51;77.32;100768.52;1752705;81;21089;-48
2021/04/04 15:27:07;;;;;;;4.95;3.65;;;;;;;9.48;77.27;100770.41;1783106;79;21741;-48
2021/04/04 15:29:35;;;;;;;6.95;3.40;;;;;;;9.43;77.45;100766.07;1776553;79;21096;-48
2021/04/04 15:32:05;;;;;;;6.53;3.92;;;;;;;9.40;77.64;100768.84;1748806;81;21137;-48
2021/04/04 15:34:33;;;;;;;4.78;3.70;;;;;;;9.37;77.79;100774.73;1793587;79;22648;-48
2021/04/04 15:37:00;;;;;;;7.10;3.35;;;;;;;9.34;78.03;100773.02;1795460;79;21443;-48
2021/04/04 15:39:28;;;;;;;7.08;3.70;;;;;;;9.33;78.14;100774.42;1751700;79;21676;-48
2021/04/04 15:41:57;;;;;;;5.65;3.40;;;;;;;9.33;78.36;100771.74;1788380;79;21017;-48
2021/04/04 15:44:25;;;;;;;5.85;3.72;;;;;;;9.31;78.38;100770.44;1792540;79;21126;-49
2021/04/04 15:46:57;;;;;;;4.55;3.17;;;;;;;9.31;78.39;100777.13;1785195;79;21144;-48
2021/04/04 15:49:25;;;;;;;5.00;3.47;;;;;;;9.28;78.38;100775.87;1771111;79;21062;-48
2021/04/04 15:51:52;;;;;;;5.00;3.10;;;;;;;9.24;78.36;100772.41;1773095;79;21469;-48
2021/04/04 15:54:20;;;;;;;5.37;3.37;;;;;;;9.22;78.48;100777.41;1796739;79;21147;-49
2021/04/04 15:56:48;;;;;;;4.37;3.40;;;;;;;9.16;78.72;100777.97;1782081;79;21058;-49
2021/04/04 15:59:16;;;;;;;5.55;3.02;;;;;;;9.13;78.99;100783.41;1763801;79;21055;-49
2021/04/04 16:01:44;;;;;;;6.47;3.12;;;;;;;9.11;79.33;100779.05;1767988;79;21140;-49
2021/04/04 16:04:13;;;;;;;4.87;3.30;;;;;;;9.09;79.57;100773.73;1777927;79;21438;-48
2021/04/04 16:06:41;;;;;;;5.72;3.08;;;;;;;9.08;79.73;100771.12;1780020;79;21140;-50
2021/04/04 16:09:09;;;;;;;5.58;3.12;;;;;;;9.03;79.79;100767.23;1765732;81;21153;-48
2021/04/04 16:11:40;;;;;;;6.30;3.77;;;;;;;9.00;79.87;100763.31;1766525;81;21050;-48
2021/04/04 16:14:06;;;;;;;5.00;3.30;;;;;;;8.97;80.00;100766.94;1760064;80;21192;-50
2021/04/04 16:16:35;;;;;;;6.85;3.47;;;;;;;8.95;80.17;100759.86;1767035;80;21358;-49
2021/04/04 16:19:03;;;;;;;5.95;3.55;;;;;;;8.90;80.40;100758.67;1769984;79;21154;-49
2021/04/04 16:21:34;;;;;;;5.30;3.20;;;;;;;8.88;80.54;100766.72;1786294;79;21115;-47
2021/04/04 16:24:04;;;;;;;4.42;3.67;;;;;;;8.84;80.72;100762.39;1781058;79;21126;-49
2021/04/04 16:26:31;;;;;;;4.87;3.47;;;;;;;8.80;80.77;100764.73;1772349;79;21120;-48
2021/04/04 16:28:59;;;;;;;6.95;4.22;;;;;;;8.76;80.97;100763.52;1773135;79;21684;-48
2021/04/04 16:31:26;;;;;;;9.08;5.17;;;;;;;8.71;81.16;100762.30;1771012;79;21070;-48
2021/04/04 16:33:55;;;;;;;10.10;5.90;;;;;;;8.66;81.42;100759.77;1796926;79;21066;-48
2021/04/04 16:36:23;;;;;;;13.50;7.12;;;;;;;8.65;81.70;100758.46;1791285;79;21162;-48
2021/04/04 16:38:50;;;;;;;13.03;6.12;;;;;;;8.63;81.83;100760.30;1784751;79;21165;-48
2021/04/04 16:41:19;;;;;;;9.03;5.12;;;;;;;8.59;81.95;100752.37;1779433;79;21360;-48
2021/04/04 16:43:47;;;;;;;6.72;4.92;;;;;;;8.58;82.27;100750.61;1767140;79;21073;-48
2021/04/04 16:46:15;;;;;;;13.68;5.45;;;;;;;8.57;82.50;100747.53;1766663;81;21050;-48
2021/04/04 16:48:42;;;;;;;8.08;4.83;;;;;;;8.57;82.59;100750.20;1766514;81;21138;-48
2021/04/04 16:51:10;;;;;;;7.87;4.85;;;;;;;8.55;82.69;100745.36;1754539;81;21148;-48
2021/04/04 16:53:37;;;;;;;8.15;4.80;;;;;;;8.55;82.78;100742.69;1771821;80;21707;-48
2021/04/04 16:56:06;;;;;;;8.08;4.30;;;;;;;8.55;82.77;100744.02;1750962;80;21204;-49
2021/04/04 16:58:34;;;;;;;5.95;4.03;;;;;;;8.54;82.93;100748.95;1767520;79;21207;-48
2021/04/04 17:01:02;;;;;;;8.73;4.70;;;;;;;8.53;83.08;100748.53;1792035;79;21112;-48
2021/04/04 17:03:30;;;;;;;6.78;4.55;;;;;;;8.53;83.31;100749.87;1766692;81;21161;-48
2021/04/04 17:05:59;;;;;;;6.50;4.60;;;;;;;8.50;83.33;100749.92;1766490;80;21420;-48
2021/04/04 17:08:27;;;;;;;7.62;4.85;;;;;;;8.46;83.42;100750.89;1766485;81;21078;-48
2021/04/04 17:10:57;;;;;;;8.68;4.95;;;;;;;8.41;83.53;100750.14;1770184;79;21085;-48
2021/04/04 17:13:25;;;;;;;7.10;4.90;;;;;;;8.35;83.75;100754.31;1754343;81;21068;-48
2021/04/04 17:15:54;;;;;;;19.27;10.30;;;;;;;8.31;83.97;100758.41;1781141;79;21133;-48
2021/04/04 17:18:22;;;;;;;15.98;10.08;;;;;;;8.26;83.77;100755.42;1768045;79;21579;-48
2021/04/04 17:20:51;;;;;;;16.27;8.63;;;;;;;8.12;83.58;100749.09;1759099;81;21126;-48
2021/04/04 17:23:19;;;;;;;22.77;10.00;;;;;;;8.02;83.72;100749.78;1780392;79;21163;-48
2021/04/04 17:25:47;;;;;;;16.77;7.92;;;;;;;7.95;83.86;100753.05;1758779;79;21080;-48
2021/04/04 17:28:14;;;;;;;11.35;7.33;;;;;;;7.89;84.17;100762.08;1764858;80;21124;-54
2021/04/04 17:30:43;;;;;;;9.80;5.70;;;;;;;7.85;84.72;100758.20;1779658;80;21320;-54
2021/04/04 17:33:11;;;;;;;8.40;5.17;;;;;;;7.81;85.30;100761.83;1755189;80;21152;-54
2021/04/04 17:35:39;;;;;;;10.50;5.50;;;;;;;7.76;85.68;100761.06;1762888;80;21505;-55
2021/04/04 17:38:07;;;;;;;10.70;5.30;;;;;;;7.71;86.04;100752.72;1770544;80;21162;-54
2021/04/04 17:40:35;;;;;;;6.90;4.90;;;;;;;7.68;86.32;100758.13;1758258;80;21152;-55
2021/04/04 17:43:04;;;;;;;5.97;3.75;;;;;;;7.63;86.65;100756.03;1767749;80;21300;-54
2021/04/04 17:45:32;;;;;;;9.70;3.67;;;;;;;7.60;86.93;100757.41;1753985;79;21129;-54
2021/04/04 17:48:00;;;;;;;7.30;3.60;;;;;;;7.56;87.27;100753.95;1750040;80;21066;-55
2021/04/04 17:50:28;;;;;;;5.72;3.50;;;;;;;7.54;87.58;100748.21;1763189;80;21527;-54
2021/04/04 17:52:56;;;;;;;7.28;4.00;;;;;;;7.52;87.93;100747.38;1750032;80;21099;-55
2021/04/04 17:55:23;;;;;;;5.58;3.77;;;;;;;7.51;88.09;100749.62;1750853;80;21274;-55
2021/04/04 17:57:53;;;;;;;9.08;3.85;;;;;;;7.48;88.28;100755.03;1787578;80;21109;-55
2021/04/04 18:00:23;;;;;;;7.70;4.08;;;;;;;7.45;88.46;100762.19;1780919;80;21164;-55
2021/04/04 18:03:05;;;;;;;7.00;4.22;;;;;;;7.41;88.68;100767.17;1780856;80;21176;-55
2021/04/04 18:05:27;;;;;;;10.30;5.65;;;;;;;7.38;88.89;100772.55;1778881;80;21114;-55
2021/04/04 18:13:07;;;;;;;11.33;6.20;;;;;;;7.26;89.61;100780.83;1780974;80;21157;-55
2021/04/04 18:15:35;;;;;;;12.88;6.08;;;;;;;7.23;89.97;100782.23;1780846;80;21149;-55
2021/04/04 18:18:04;;;;;;;15.15;6.75;;;;;;;7.22;90.29;100777.81;1780872;80;21125;-54
2021/04/04 18:20:31;;;;;;;11.57;5.62;;;;;;;7.22;90.57;100779.14;1780868;80;21316;-55
2021/04/04 18:22:59;;;;;;;9.60;6.10;;;;;;;7.19;90.69;100787.20;1780767;80;21134;-54
2021/04/04 18:25:27;;;;;;;10.32;5.90;;;;;;;7.16;90.86;100782.33;1780785;79;21066;-54
2021/04/04 18:27:55;;;;;;;11.15;5.62;;;;;;;7.11;90.94;100780.22;1780835;80;21089;-54
2021/04/04 18:30:24;;;;;;;8.45;5.90;;;;;;;7.07;91.04;100797.20;1780867;80;21121;-54
2021/04/04 18:32:51;;;;;;;11.12;6.17;;;;;;;7.02;91.21;100795.08;1780860;80;21362;-54
2021/04/04 18:35:21;;;;;;;10.82;6.45;;;;;;;6.99;91.62;100799.14;1780894;80;21157;-54
2021/04/04 18:37:49;;;;;;;9.13;6.08;;;;;;;6.98;91.92;100800.05;1780859;80;21057;-54
2021/04/04 18:40:19;;;;;;;10.05;6.35;;;;;;;6.95;91.98;100805.41;1780655;80;21082;-56
2021/04/04 18:42:47;;;;;;;10.72;5.35;;;;;;;6.90;92.05;100799.30;1780941;80;21061;-55
2021/04/04 18:45:16;;;;;;;10.90;5.85;;;;;;;6.87;92.18;100801.59;1780817;80;21354;-55
2021/04/04 18:47:43;;;;;;;9.43;5.35;;;;;;;6.81;92.32;100799.91;1780775;80;21113;-54
2021/04/04 18:50:12;;;;;;;8.20;4.97;;;;;;;6.80;92.63;100794.16;1780904;80;21192;-55
2021/04/04 18:52:39;;;;;;;7.47;4.75;;;;;;;6.80;92.74;100802.15;1780890;80;21160;-55
2021/04/04 18:55:09;;;;;;;7.80;4.25;;;;;;;6.77;92.64;100795.55;1780892;80;21157;-55
2021/04/04 18:57:38;;;;;;;5.67;4.00;;;;;;;6.76;92.83;100796.45;1780782;80;21361;-55
2021/04/04 19:00:09;;;;;;;5.47;3.72;;;;;;;6.77;92.83;100796.87;1780808;80;21057;-55
2021/04/04 19:02:37;;;;;;;5.40;3.72;;;;;;;6.75;92.72;100796.03;1780820;80;21058;-54
2021/04/04 19:05:08;;;;;;;11.18;4.47;;;;;;;6.74;92.62;100799.14;1780740;80;21149;-55
2021/04/04 19:07:36;;;;;;;5.15;3.72;;;;;;;6.73;92.55;100795.16;1780853;80;21045;-54
2021/04/04 19:10:06;;;;;;;5.58;3.72;;;;;;;6.71;92.50;100800.97;1780778;80;21238;-55